BKVR weather

Vali Ranch Heliport
Përlepnice, Gjilan District, Kosovo

Public forecast

Using degrees Celsius for public forecast. Weather courtesy of forecast.io.

Closest aviation weather report (METAR) to Vali Ranch Heliport

Closest report is Priština International Airport, 22.3 nm (41.4 km) W. Retrieved 2020/07/08 01:30 UTC (10 minutes ago):

BKPR 080130Z VRB02KT 9999 FEW080 11/07 Q1019 NOSIG

Closest aviation forecast (TAF) to Vali Ranch Heliport

Closest forecast is Priština International Airport, 22.3 nm (41.4 km) W. Retrieved 2020-07-08 00:30 UTC (1 hour ago):

TAF BKPR 072330Z 0800/0824 VRB03KT 9999 FEW050 TEMPO 0803/0806 3000 BR